sensor_id;sensor_type;location;lat;lon;timestamp;P1;durP1;ratioP1;P2;durP2;ratioP2
36725;SDS011;44936;52.086;5.150;2023-04-07T00:02:28;6.13;;;1.70;;
36725;SDS011;44936;52.086;5.150;2023-04-07T00:04:53;5.03;;;1.50;;
36725;SDS011;44936;52.086;5.150;2023-04-07T00:07:18;3.45;;;1.50;;
36725;SDS011;44936;52.086;5.150;2023-04-07T00:09:44;5.25;;;1.50;;
36725;SDS011;44936;52.086;5.150;2023-04-07T00:12:09;2.67;;;1.38;;
36725;SDS011;44936;52.086;5.150;2023-04-07T00:14:35;3.13;;;1.27;;
36725;SDS011;44936;52.086;5.150;2023-04-07T00:17:00;2.90;;;1.30;;
36725;SDS011;44936;52.086;5.150;2023-04-07T00:19:25;2.38;;;1.25;;
36725;SDS011;44936;52.086;5.150;2023-04-07T00:21:51;3.92;;;1.10;;
36725;SDS011;44936;52.086;5.150;2023-04-07T00:24:18;2.70;;;1.10;;
36725;SDS011;44936;52.086;5.150;2023-04-07T00:26:43;3.00;;;1.25;;
36725;SDS011;44936;52.086;5.150;2023-04-07T00:29:08;3.83;;;1.38;;
36725;SDS011;44936;52.086;5.150;2023-04-07T00:31:34;3.88;;;1.50;;
36725;SDS011;44936;52.086;5.150;2023-04-07T00:33:59;2.63;;;1.20;;
36725;SDS011;44936;52.086;5.150;2023-04-07T00:36:24;4.03;;;1.40;;
36725;SDS011;44936;52.086;5.150;2023-04-07T00:38:51;4.80;;;1.60;;
36725;SDS011;44936;52.086;5.150;2023-04-07T00:41:16;5.18;;;1.42;;
36725;SDS011;44936;52.086;5.150;2023-04-07T00:43:41;3.88;;;1.52;;
36725;SDS011;44936;52.086;5.150;2023-04-07T00:46:07;6.38;;;1.50;;
36725;SDS011;44936;52.086;5.150;2023-04-07T00:48:32;2.17;;;1.27;;
36725;SDS011;44936;52.086;5.150;2023-04-07T00:50:58;3.55;;;1.75;;
36725;SDS011;44936;52.086;5.150;2023-04-07T00:53:23;4.68;;;1.60;;
36725;SDS011;44936;52.086;5.150;2023-04-07T00:55:49;7.18;;;1.52;;
36725;SDS011;44936;52.086;5.150;2023-04-07T00:58:14;3.80;;;1.48;;
36725;SDS011;44936;52.086;5.150;2023-04-07T01:00:41;7.57;;;1.80;;
36725;SDS011;44936;52.086;5.150;2023-04-07T01:03:28;5.68;;;1.80;;
36725;SDS011;44936;52.086;5.150;2023-04-07T01:06:01;4.90;;;2.17;;
36725;SDS011;44936;52.086;5.150;2023-04-07T01:14:04;6.13;;;1.58;;
36725;SDS011;44936;52.086;5.150;2023-04-07T01:16:49;9.00;;;2.15;;
36725;SDS011;44936;52.086;5.150;2023-04-07T01:19:28;10.50;;;1.98;;
36725;SDS011;44936;52.086;5.150;2023-04-07T01:22:20;4.15;;;1.35;;
36725;SDS011;44936;52.086;5.150;2023-04-07T01:30:38;7.68;;;2.10;;
36725;SDS011;44936;52.086;5.150;2023-04-07T01:33:08;5.28;;;1.65;;
36725;SDS011;44936;52.086;5.150;2023-04-07T01:35:35;6.22;;;1.48;;
36725;SDS011;44936;52.086;5.150;2023-04-07T01:38:01;4.30;;;1.80;;
36725;SDS011;44936;52.086;5.150;2023-04-07T01:40:28;5.25;;;1.75;;
36725;SDS011;44936;52.086;5.150;2023-04-07T01:42:55;4.70;;;1.70;;
36725;SDS011;44936;52.086;5.150;2023-04-07T01:45:21;5.85;;;1.58;;
36725;SDS011;44936;52.086;5.150;2023-04-07T01:47:48;8.32;;;2.13;;
36725;SDS011;44936;52.086;5.150;2023-04-07T01:50:15;10.02;;;2.00;;
36725;SDS011;44936;52.086;5.150;2023-04-07T01:52:41;5.68;;;1.80;;
36725;SDS011;44936;52.086;5.150;2023-04-07T01:55:07;8.20;;;1.63;;
36725;SDS011;44936;52.086;5.150;2023-04-07T01:57:33;6.80;;;1.40;;
36725;SDS011;44936;52.086;5.150;2023-04-07T01:59:59;5.45;;;1.77;;
36725;SDS011;44936;52.086;5.150;2023-04-07T02:02:24;7.53;;;1.48;;
36725;SDS011;44936;52.086;5.150;2023-04-07T02:05:10;6.75;;;1.30;;
36725;SDS011;44936;52.086;5.150;2023-04-07T02:07:44;5.82;;;1.30;;
36725;SDS011;44936;52.086;5.150;2023-04-07T02:10:16;4.38;;;1.20;;
36725;SDS011;44936;52.086;5.150;2023-04-07T02:12:45;7.05;;;1.50;;
36725;SDS011;44936;52.086;5.150;2023-04-07T02:15:11;3.45;;;1.30;;
36725;SDS011;44936;52.086;5.150;2023-04-07T02:17:41;5.72;;;1.30;;
36725;SDS011;44936;52.086;5.150;2023-04-07T02:20:10;3.28;;;1.33;;
36725;SDS011;44936;52.086;5.150;2023-04-07T02:22:39;5.97;;;1.40;;
36725;SDS011;44936;52.086;5.150;2023-04-07T02:27:51;5.45;;;1.30;;
36725;SDS011;44936;52.086;5.150;2023-04-07T02:30:17;5.57;;;1.20;;
36725;SDS011;44936;52.086;5.150;2023-04-07T02:32:43;5.55;;;1.63;;
36725;SDS011;44936;52.086;5.150;2023-04-07T02:35:09;4.75;;;1.13;;
36725;SDS011;44936;52.086;5.150;2023-04-07T02:37:35;7.10;;;1.50;;
36725;SDS011;44936;52.086;5.150;2023-04-07T02:40:01;8.15;;;0.95;;
36725;SDS011;44936;52.086;5.150;2023-04-07T02:42:27;4.40;;;1.02;;
36725;SDS011;44936;52.086;5.150;2023-04-07T02:44:52;5.45;;;1.00;;
36725;SDS011;44936;52.086;5.150;2023-04-07T02:47:18;4.38;;;1.13;;
36725;SDS011;44936;52.086;5.150;2023-04-07T02:49:43;2.97;;;1.00;;
36725;SDS011;44936;52.086;5.150;2023-04-07T02:52:08;3.70;;;1.25;;
36725;SDS011;44936;52.086;5.150;2023-04-07T02:54:34;4.90;;;1.15;;
36725;SDS011;44936;52.086;5.150;2023-04-07T02:57:00;6.50;;;1.17;;
36725;SDS011;44936;52.086;5.150;2023-04-07T02:59:26;6.82;;;1.30;;
36725;SDS011;44936;52.086;5.150;2023-04-07T03:01:51;1.23;;;0.90;;
36725;SDS011;44936;52.086;5.150;2023-04-07T03:04:16;4.18;;;1.05;;
36725;SDS011;44936;52.086;5.150;2023-04-07T03:06:42;2.85;;;1.10;;
36725;SDS011;44936;52.086;5.150;2023-04-07T03:09:07;3.58;;;1.20;;
36725;SDS011;44936;52.086;5.150;2023-04-07T03:11:32;5.60;;;1.30;;
36725;SDS011;44936;52.086;5.150;2023-04-07T03:13:58;5.90;;;1.10;;
36725;SDS011;44936;52.086;5.150;2023-04-07T03:16:23;4.45;;;1.00;;
36725;SDS011;44936;52.086;5.150;2023-04-07T03:18:48;3.75;;;1.27;;
36725;SDS011;44936;52.086;5.150;2023-04-07T03:21:14;2.90;;;1.10;;
36725;SDS011;44936;52.086;5.150;2023-04-07T03:23:39;3.72;;;1.08;;
36725;SDS011;44936;52.086;5.150;2023-04-07T03:26:05;6.05;;;0.95;;
36725;SDS011;44936;52.086;5.150;2023-04-07T03:28:30;3.65;;;0.95;;
36725;SDS011;44936;52.086;5.150;2023-04-07T03:30:55;6.47;;;1.50;;
36725;SDS011;44936;52.086;5.150;2023-04-07T03:33:21;4.72;;;1.02;;
36725;SDS011;44936;52.086;5.150;2023-04-07T03:35:46;6.05;;;1.00;;
36725;SDS011;44936;52.086;5.150;2023-04-07T03:38:12;2.78;;;0.95;;
36725;SDS011;44936;52.086;5.150;2023-04-07T03:40:37;6.07;;;1.10;;
36725;SDS011;44936;52.086;5.150;2023-04-07T03:43:02;2.92;;;0.75;;
36725;SDS011;44936;52.086;5.150;2023-04-07T03:45:28;4.30;;;0.98;;
36725;SDS011;44936;52.086;5.150;2023-04-07T03:47:53;4.57;;;1.17;;
36725;SDS011;44936;52.086;5.150;2023-04-07T03:50:18;8.18;;;1.92;;
36725;SDS011;44936;52.086;5.150;2023-04-07T03:52:44;3.55;;;1.10;;
36725;SDS011;44936;52.086;5.150;2023-04-07T03:55:09;2.03;;;1.10;;
36725;SDS011;44936;52.086;5.150;2023-04-07T03:57:35;6.75;;;1.25;;
36725;SDS011;44936;52.086;5.150;2023-04-07T04:00:01;8.85;;;1.40;;
36725;SDS011;44936;52.086;5.150;2023-04-07T04:02:26;4.95;;;1.50;;
36725;SDS011;44936;52.086;5.150;2023-04-07T04:04:52;10.40;;;1.30;;
36725;SDS011;44936;52.086;5.150;2023-04-07T04:07:17;5.13;;;1.63;;
36725;SDS011;44936;52.086;5.150;2023-04-07T04:09:42;1.83;;;1.13;;
36725;SDS011;44936;52.086;5.150;2023-04-07T04:12:08;4.97;;;1.30;;
36725;SDS011;44936;52.086;5.150;2023-04-07T04:14:33;4.68;;;1.50;;
36725;SDS011;44936;52.086;5.150;2023-04-07T04:16:58;4.32;;;1.40;;
36725;SDS011;44936;52.086;5.150;2023-04-07T04:19:24;3.60;;;1.35;;
36725;SDS011;44936;52.086;5.150;2023-04-07T04:21:50;4.93;;;1.30;;
36725;SDS011;44936;52.086;5.150;2023-04-07T04:24:15;5.65;;;1.60;;
36725;SDS011;44936;52.086;5.150;2023-04-07T04:26:40;4.45;;;1.60;;
36725;SDS011;44936;52.086;5.150;2023-04-07T04:29:06;4.78;;;1.40;;
36725;SDS011;44936;52.086;5.150;2023-04-07T04:31:31;4.80;;;1.60;;
36725;SDS011;44936;52.086;5.150;2023-04-07T04:33:57;8.57;;;2.28;;
36725;SDS011;44936;52.086;5.150;2023-04-07T04:36:22;7.07;;;1.58;;
36725;SDS011;44936;52.086;5.150;2023-04-07T04:38:48;6.82;;;1.83;;
36725;SDS011;44936;52.086;5.150;2023-04-07T04:41:13;6.43;;;2.35;;
36725;SDS011;44936;52.086;5.150;2023-04-07T04:43:39;8.25;;;2.17;;
36725;SDS011;44936;52.086;5.150;2023-04-07T04:46:04;8.52;;;2.35;;
36725;SDS011;44936;52.086;5.150;2023-04-07T04:48:30;6.22;;;2.65;;
36725;SDS011;44936;52.086;5.150;2023-04-07T04:50:55;9.02;;;2.80;;
36725;SDS011;44936;52.086;5.150;2023-04-07T04:53:20;7.45;;;3.00;;
36725;SDS011;44936;52.086;5.150;2023-04-07T04:55:46;6.20;;;2.00;;
36725;SDS011;44936;52.086;5.150;2023-04-07T04:58:15;6.03;;;2.60;;
36725;SDS011;44936;52.086;5.150;2023-04-07T05:00:41;4.88;;;2.28;;
36725;SDS011;44936;52.086;5.150;2023-04-07T05:03:07;6.93;;;2.10;;
36725;SDS011;44936;52.086;5.150;2023-04-07T05:05:32;8.48;;;2.40;;
36725;SDS011;44936;52.086;5.150;2023-04-07T05:07:57;7.22;;;2.97;;
36725;SDS011;44936;52.086;5.150;2023-04-07T05:10:23;8.93;;;2.45;;
36725;SDS011;44936;52.086;5.150;2023-04-07T05:12:48;7.88;;;2.33;;
36725;SDS011;44936;52.086;5.150;2023-04-07T05:15:13;6.68;;;2.33;;
36725;SDS011;44936;52.086;5.150;2023-04-07T05:17:39;8.95;;;2.13;;
36725;SDS011;44936;52.086;5.150;2023-04-07T05:20:07;6.40;;;2.28;;
36725;SDS011;44936;52.086;5.150;2023-04-07T05:22:33;5.00;;;2.00;;
36725;SDS011;44936;52.086;5.150;2023-04-07T05:25:02;6.65;;;2.38;;
36725;SDS011;44936;52.086;5.150;2023-04-07T05:27:27;6.95;;;2.65;;
36725;SDS011;44936;52.086;5.150;2023-04-07T05:29:53;6.78;;;2.13;;
36725;SDS011;44936;52.086;5.150;2023-04-07T05:32:18;3.80;;;1.58;;
36725;SDS011;44936;52.086;5.150;2023-04-07T05:34:43;5.55;;;2.20;;
36725;SDS011;44936;52.086;5.150;2023-04-07T05:37:09;5.38;;;2.15;;
36725;SDS011;44936;52.086;5.150;2023-04-07T05:39:34;4.43;;;2.00;;
36725;SDS011;44936;52.086;5.150;2023-04-07T05:42:00;7.25;;;1.80;;
36725;SDS011;44936;52.086;5.150;2023-04-07T05:44:27;5.68;;;2.03;;
36725;SDS011;44936;52.086;5.150;2023-04-07T05:46:52;3.95;;;1.85;;
36725;SDS011;44936;52.086;5.150;2023-04-07T05:49:17;6.20;;;1.58;;
36725;SDS011;44936;52.086;5.150;2023-04-07T05:51:43;4.85;;;1.77;;
36725;SDS011;44936;52.086;5.150;2023-04-07T05:54:08;3.38;;;1.58;;
36725;SDS011;44936;52.086;5.150;2023-04-07T05:56:33;5.40;;;1.65;;
36725;SDS011;44936;52.086;5.150;2023-04-07T05:58:59;3.33;;;1.45;;
36725;SDS011;44936;52.086;5.150;2023-04-07T06:01:25;7.88;;;1.70;;
36725;SDS011;44936;52.086;5.150;2023-04-07T06:03:51;6.30;;;1.70;;
36725;SDS011;44936;52.086;5.150;2023-04-07T06:06:17;4.07;;;1.40;;
36725;SDS011;44936;52.086;5.150;2023-04-07T06:08:42;3.80;;;1.45;;
36725;SDS011;44936;52.086;5.150;2023-04-07T06:11:07;3.90;;;1.40;;
36725;SDS011;44936;52.086;5.150;2023-04-07T06:13:33;4.10;;;1.40;;
36725;SDS011;44936;52.086;5.150;2023-04-07T06:15:58;3.13;;;1.55;;
36725;SDS011;44936;52.086;5.150;2023-04-07T06:18:23;2.80;;;1.35;;
36725;SDS011;44936;52.086;5.150;2023-04-07T06:20:49;4.10;;;1.48;;
36725;SDS011;44936;52.086;5.150;2023-04-07T06:23:14;2.33;;;1.10;;
36725;SDS011;44936;52.086;5.150;2023-04-07T06:25:40;4.95;;;1.30;;
36725;SDS011;44936;52.086;5.150;2023-04-07T06:28:05;3.38;;;1.02;;
36725;SDS011;44936;52.086;5.150;2023-04-07T06:30:31;5.78;;;1.13;;
36725;SDS011;44936;52.086;5.150;2023-04-07T06:32:56;4.03;;;1.30;;
36725;SDS011;44936;52.086;5.150;2023-04-07T06:35:21;2.67;;;0.93;;
36725;SDS011;44936;52.086;5.150;2023-04-07T06:37:47;4.55;;;1.30;;
36725;SDS011;44936;52.086;5.150;2023-04-07T06:40:12;2.53;;;1.17;;
36725;SDS011;44936;52.086;5.150;2023-04-07T06:42:38;6.55;;;1.30;;
36725;SDS011;44936;52.086;5.150;2023-04-07T06:45:03;2.92;;;1.08;;
36725;SDS011;44936;52.086;5.150;2023-04-07T06:47:29;2.75;;;1.40;;
36725;SDS011;44936;52.086;5.150;2023-04-07T06:49:54;3.05;;;1.33;;
36725;SDS011;44936;52.086;5.150;2023-04-07T06:52:20;2.30;;;1.02;;
36725;SDS011;44936;52.086;5.150;2023-04-07T06:54:45;1.63;;;0.77;;
36725;SDS011;44936;52.086;5.150;2023-04-07T06:57:11;5.28;;;1.20;;
36725;SDS011;44936;52.086;5.150;2023-04-07T06:59:36;3.85;;;1.23;;
36725;SDS011;44936;52.086;5.150;2023-04-07T07:02:02;5.60;;;1.50;;
36725;SDS011;44936;52.086;5.150;2023-04-07T07:04:28;3.83;;;1.52;;
36725;SDS011;44936;52.086;5.150;2023-04-07T07:06:53;5.57;;;0.90;;
36725;SDS011;44936;52.086;5.150;2023-04-07T07:09:19;6.28;;;1.70;;
36725;SDS011;44936;52.086;5.150;2023-04-07T07:11:45;5.60;;;1.20;;
36725;SDS011;44936;52.086;5.150;2023-04-07T07:14:11;5.95;;;1.40;;
36725;SDS011;44936;52.086;5.150;2023-04-07T07:16:37;4.25;;;1.58;;
36725;SDS011;44936;52.086;5.150;2023-04-07T07:19:02;4.93;;;1.05;;
36725;SDS011;44936;52.086;5.150;2023-04-07T07:21:28;4.68;;;1.27;;
36725;SDS011;44936;52.086;5.150;2023-04-07T07:23:53;1.92;;;0.80;;
36725;SDS011;44936;52.086;5.150;2023-04-07T07:26:18;4.25;;;1.00;;
36725;SDS011;44936;52.086;5.150;2023-04-07T07:28:44;2.75;;;1.30;;
36725;SDS011;44936;52.086;5.150;2023-04-07T07:31:11;2.85;;;1.15;;
36725;SDS011;44936;52.086;5.150;2023-04-07T07:33:38;3.05;;;1.20;;
36725;SDS011;44936;52.086;5.150;2023-04-07T07:36:05;6.35;;;1.33;;
36725;SDS011;44936;52.086;5.150;2023-04-07T07:38:30;3.78;;;1.63;;
36725;SDS011;44936;52.086;5.150;2023-04-07T07:40:56;4.43;;;1.35;;
36725;SDS011;44936;52.086;5.150;2023-04-07T07:43:21;2.70;;;1.35;;
36725;SDS011;44936;52.086;5.150;2023-04-07T07:45:46;2.85;;;1.50;;
36725;SDS011;44936;52.086;5.150;2023-04-07T07:48:12;3.33;;;1.10;;
36725;SDS011;44936;52.086;5.150;2023-04-07T07:50:39;3.33;;;1.60;;
36725;SDS011;44936;52.086;5.150;2023-04-07T07:53:09;2.95;;;1.08;;
36725;SDS011;44936;52.086;5.150;2023-04-07T07:55:34;3.45;;;1.35;;
36725;SDS011;44936;52.086;5.150;2023-04-07T07:58:00;2.45;;;1.20;;
36725;SDS011;44936;52.086;5.150;2023-04-07T08:00:25;2.80;;;0.82;;
36725;SDS011;44936;52.086;5.150;2023-04-07T08:02:51;4.10;;;1.30;;
36725;SDS011;44936;52.086;5.150;2023-04-07T08:05:17;3.25;;;1.15;;
36725;SDS011;44936;52.086;5.150;2023-04-07T08:07:42;2.67;;;1.33;;
36725;SDS011;44936;52.086;5.150;2023-04-07T08:10:08;3.05;;;1.30;;
36725;SDS011;44936;52.086;5.150;2023-04-07T08:12:33;7.15;;;1.30;;
36725;SDS011;44936;52.086;5.150;2023-04-07T08:14:59;3.95;;;1.48;;
36725;SDS011;44936;52.086;5.150;2023-04-07T08:17:25;8.10;;;1.80;;
36725;SDS011;44936;52.086;5.150;2023-04-07T08:19:51;2.80;;;1.20;;
36725;SDS011;44936;52.086;5.150;2023-04-07T08:22:16;6.35;;;1.50;;
36725;SDS011;44936;52.086;5.150;2023-04-07T08:24:43;6.22;;;1.10;;
36725;SDS011;44936;52.086;5.150;2023-04-07T08:27:09;2.92;;;1.25;;
36725;SDS011;44936;52.086;5.150;2023-04-07T08:29:34;3.20;;;1.30;;
36725;SDS011;44936;52.086;5.150;2023-04-07T08:32:00;4.18;;;1.42;;
36725;SDS011;44936;52.086;5.150;2023-04-07T08:34:25;4.65;;;1.00;;
36725;SDS011;44936;52.086;5.150;2023-04-07T08:36:50;4.20;;;1.50;;
36725;SDS011;44936;52.086;5.150;2023-04-07T08:39:16;3.65;;;1.17;;
36725;SDS011;44936;52.086;5.150;2023-04-07T08:41:41;1.95;;;1.17;;
36725;SDS011;44936;52.086;5.150;2023-04-07T08:44:09;1.83;;;0.82;;
36725;SDS011;44936;52.086;5.150;2023-04-07T08:46:36;4.72;;;1.23;;
36725;SDS011;44936;52.086;5.150;2023-04-07T08:49:03;2.30;;;1.13;;
36725;SDS011;44936;52.086;5.150;2023-04-07T08:51:34;2.17;;;1.60;;
36725;SDS011;44936;52.086;5.150;2023-04-07T08:54:09;3.10;;;1.77;;
36725;SDS011;44936;52.086;5.150;2023-04-07T08:56:39;9.60;;;1.42;;
36725;SDS011;44936;52.086;5.150;2023-04-07T08:59:06;2.90;;;1.40;;
36725;SDS011;44936;52.086;5.150;2023-04-07T09:01:35;2.38;;;1.65;;
36725;SDS011;44936;52.086;5.150;2023-04-07T09:04:02;5.13;;;1.20;;
36725;SDS011;44936;52.086;5.150;2023-04-07T09:06:31;1.38;;;0.90;;
36725;SDS011;44936;52.086;5.150;2023-04-07T09:08:58;5.03;;;1.17;;
36725;SDS011;44936;52.086;5.150;2023-04-07T09:11:27;2.95;;;1.10;;
36725;SDS011;44936;52.086;5.150;2023-04-07T09:13:54;7.20;;;1.40;;
36725;SDS011;44936;52.086;5.150;2023-04-07T09:16:21;2.63;;;0.90;;
36725;SDS011;44936;52.086;5.150;2023-04-07T09:18:47;4.82;;;1.17;;
36725;SDS011;44936;52.086;5.150;2023-04-07T09:21:13;2.72;;;1.88;;
36725;SDS011;44936;52.086;5.150;2023-04-07T09:23:39;1.67;;;1.05;;
36725;SDS011;44936;52.086;5.150;2023-04-07T09:28:47;8.82;;;1.80;;
36725;SDS011;44936;52.086;5.150;2023-04-07T09:31:15;3.53;;;1.63;;
36725;SDS011;44936;52.086;5.150;2023-04-07T09:33:41;3.00;;;1.77;;
36725;SDS011;44936;52.086;5.150;2023-04-07T09:36:06;9.02;;;1.60;;
36725;SDS011;44936;52.086;5.150;2023-04-07T09:38:33;7.53;;;1.70;;
36725;SDS011;44936;52.086;5.150;2023-04-07T09:43:36;4.85;;;1.52;;
36725;SDS011;44936;52.086;5.150;2023-04-07T09:46:15;6.00;;;1.70;;
36725;SDS011;44936;52.086;5.150;2023-04-07T09:48:43;5.45;;;2.15;;
36725;SDS011;44936;52.086;5.150;2023-04-07T09:51:15;8.20;;;2.53;;
36725;SDS011;44936;52.086;5.150;2023-04-07T09:53:42;7.70;;;2.58;;
36725;SDS011;44936;52.086;5.150;2023-04-07T09:56:13;8.20;;;2.33;;
36725;SDS011;44936;52.086;5.150;2023-04-07T09:58:40;8.05;;;2.50;;
36725;SDS011;44936;52.086;5.150;2023-04-07T10:01:08;5.25;;;2.20;;
36725;SDS011;44936;52.086;5.150;2023-04-07T10:03:34;9.07;;;2.70;;
36725;SDS011;44936;52.086;5.150;2023-04-07T10:06:01;6.03;;;2.40;;
36725;SDS011;44936;52.086;5.150;2023-04-07T10:08:27;9.52;;;2.60;;
36725;SDS011;44936;52.086;5.150;2023-04-07T10:10:55;7.15;;;2.22;;
36725;SDS011;44936;52.086;5.150;2023-04-07T10:13:22;4.70;;;2.35;;
36725;SDS011;44936;52.086;5.150;2023-04-07T10:15:50;5.72;;;3.05;;
36725;SDS011;44936;52.086;5.150;2023-04-07T10:18:16;6.68;;;2.40;;
36725;SDS011;44936;52.086;5.150;2023-04-07T10:20:43;5.85;;;2.30;;
36725;SDS011;44936;52.086;5.150;2023-04-07T10:24:14;5.97;;;2.65;;
36725;SDS011;44936;52.086;5.150;2023-04-07T10:26:14;6.37;;;2.60;;
36725;SDS011;44936;52.086;5.150;2023-04-07T10:28:43;4.03;;;2.30;;
36725;SDS011;44936;52.086;5.150;2023-04-07T10:31:13;5.07;;;2.47;;
36725;SDS011;44936;52.086;5.150;2023-04-07T10:33:50;6.00;;;2.63;;
36725;SDS011;44936;52.086;5.150;2023-04-07T10:36:17;5.85;;;2.33;;
36725;SDS011;44936;52.086;5.150;2023-04-07T10:39:17;7.68;;;2.15;;
36725;SDS011;44936;52.086;5.150;2023-04-07T10:41:35;5.45;;;1.88;;
36725;SDS011;44936;52.086;5.150;2023-04-07T10:44:02;5.38;;;1.55;;
36725;SDS011;44936;52.086;5.150;2023-04-07T10:47:05;3.45;;;1.38;;
36725;SDS011;44936;52.086;5.150;2023-04-07T10:49:28;3.90;;;1.17;;
36725;SDS011;44936;52.086;5.150;2023-04-07T10:54:38;3.53;;;1.15;;
36725;SDS011;44936;52.086;5.150;2023-04-07T10:57:11;6.25;;;1.30;;
36725;SDS011;44936;52.086;5.150;2023-04-07T10:59:39;2.97;;;1.05;;
36725;SDS011;44936;52.086;5.150;2023-04-07T11:04:51;3.85;;;1.27;;
36725;SDS011;44936;52.086;5.150;2023-04-07T11:07:16;17.98;;;1.60;;
36725;SDS011;44936;52.086;5.150;2023-04-07T11:09:43;3.00;;;1.52;;
36725;SDS011;44936;52.086;5.150;2023-04-07T11:12:20;6.45;;;1.58;;
36725;SDS011;44936;52.086;5.150;2023-04-07T11:14:46;5.32;;;1.50;;
36725;SDS011;44936;52.086;5.150;2023-04-07T11:17:14;3.65;;;1.40;;
36725;SDS011;44936;52.086;5.150;2023-04-07T11:20:14;2.75;;;1.35;;
36725;SDS011;44936;52.086;5.150;2023-04-07T11:22:33;3.83;;;1.33;;
36725;SDS011;44936;52.086;5.150;2023-04-07T11:24:59;5.53;;;1.40;;
36725;SDS011;44936;52.086;5.150;2023-04-07T11:27:25;6.72;;;1.60;;
36725;SDS011;44936;52.086;5.150;2023-04-07T11:29:52;4.97;;;1.35;;
36725;SDS011;44936;52.086;5.150;2023-04-07T11:32:21;5.30;;;1.88;;
36725;SDS011;44936;52.086;5.150;2023-04-07T11:34:53;3.65;;;1.30;;
36725;SDS011;44936;52.086;5.150;2023-04-07T11:37:24;3.35;;;1.35;;
36725;SDS011;44936;52.086;5.150;2023-04-07T11:39:53;4.18;;;1.45;;
36725;SDS011;44936;52.086;5.150;2023-04-07T11:42:35;4.82;;;1.02;;
36725;SDS011;44936;52.086;5.150;2023-04-07T11:45:02;4.53;;;1.10;;
36725;SDS011;44936;52.086;5.150;2023-04-07T11:47:34;8.18;;;1.55;;
36725;SDS011;44936;52.086;5.150;2023-04-07T11:50:01;4.75;;;1.42;;
36725;SDS011;44936;52.086;5.150;2023-04-07T11:52:26;2.03;;;1.40;;
36725;SDS011;44936;52.086;5.150;2023-04-07T11:54:51;8.80;;;1.48;;
36725;SDS011;44936;52.086;5.150;2023-04-07T11:57:24;1.83;;;0.93;;
36725;SDS011;44936;52.086;5.150;2023-04-07T12:00:04;9.88;;;1.42;;
36725;SDS011;44936;52.086;5.150;2023-04-07T12:02:33;7.28;;;1.30;;
36725;SDS011;44936;52.086;5.150;2023-04-07T12:04:59;4.88;;;1.30;;
36725;SDS011;44936;52.086;5.150;2023-04-07T12:07:24;6.63;;;1.90;;
36725;SDS011;44936;52.086;5.150;2023-04-07T12:09:50;6.22;;;1.85;;
36725;SDS011;44936;52.086;5.150;2023-04-07T12:12:24;2.42;;;1.48;;
36725;SDS011;44936;52.086;5.150;2023-04-07T12:14:51;7.63;;;2.17;;
36725;SDS011;44936;52.086;5.150;2023-04-07T12:17:20;5.15;;;2.08;;
36725;SDS011;44936;52.086;5.150;2023-04-07T12:19:49;6.22;;;1.90;;
36725;SDS011;44936;52.086;5.150;2023-04-07T12:22:14;7.40;;;2.42;;
36725;SDS011;44936;52.086;5.150;2023-04-07T12:24:40;7.30;;;2.10;;
36725;SDS011;44936;52.086;5.150;2023-04-07T12:27:05;3.70;;;1.80;;
36725;SDS011;44936;52.086;5.150;2023-04-07T12:29:32;1.92;;;1.13;;
36725;SDS011;44936;52.086;5.150;2023-04-07T12:31:58;5.97;;;1.70;;
36725;SDS011;44936;52.086;5.150;2023-04-07T12:34:23;3.05;;;1.08;;
36725;SDS011;44936;52.086;5.150;2023-04-07T12:36:49;3.78;;;1.48;;
36725;SDS011;44936;52.086;5.150;2023-04-07T12:39:14;6.47;;;1.13;;
36725;SDS011;44936;52.086;5.150;2023-04-07T12:41:40;4.35;;;1.20;;
36725;SDS011;44936;52.086;5.150;2023-04-07T12:44:06;5.45;;;1.50;;
36725;SDS011;44936;52.086;5.150;2023-04-07T12:46:31;5.82;;;1.08;;
36725;SDS011;44936;52.086;5.150;2023-04-07T12:48:57;3.80;;;1.52;;
36725;SDS011;44936;52.086;5.150;2023-04-07T12:51:22;1.70;;;1.02;;
36725;SDS011;44936;52.086;5.150;2023-04-07T12:53:47;6.97;;;1.30;;
36725;SDS011;44936;52.086;5.150;2023-04-07T12:56:13;4.70;;;1.35;;
36725;SDS011;44936;52.086;5.150;2023-04-07T12:58:39;1.95;;;0.90;;
36725;SDS011;44936;52.086;5.150;2023-04-07T13:01:04;4.07;;;1.10;;
36725;SDS011;44936;52.086;5.150;2023-04-07T13:03:30;3.28;;;1.45;;
36725;SDS011;44936;52.086;5.150;2023-04-07T13:05:56;6.95;;;1.25;;
36725;SDS011;44936;52.086;5.150;2023-04-07T13:08:25;3.47;;;1.67;;
36725;SDS011;44936;52.086;5.150;2023-04-07T13:10:51;9.52;;;1.45;;
36725;SDS011;44936;52.086;5.150;2023-04-07T13:13:16;5.45;;;2.03;;
36725;SDS011;44936;52.086;5.150;2023-04-07T13:15:42;4.68;;;1.13;;
36725;SDS011;44936;52.086;5.150;2023-04-07T13:18:07;3.95;;;1.05;;
36725;SDS011;44936;52.086;5.150;2023-04-07T13:20:33;7.78;;;1.48;;
36725;SDS011;44936;52.086;5.150;2023-04-07T13:22:58;5.32;;;1.30;;
36725;SDS011;44936;52.086;5.150;2023-04-07T13:25:24;6.80;;;1.40;;
36725;SDS011;44936;52.086;5.150;2023-04-07T13:27:49;4.30;;;1.27;;
36725;SDS011;44936;52.086;5.150;2023-04-07T13:30:15;2.80;;;1.20;;
36725;SDS011;44936;52.086;5.150;2023-04-07T13:32:40;5.22;;;1.20;;
36725;SDS011;44936;52.086;5.150;2023-04-07T13:35:06;3.33;;;1.60;;
36725;SDS011;44936;52.086;5.150;2023-04-07T13:37:31;7.40;;;1.60;;
36725;SDS011;44936;52.086;5.150;2023-04-07T13:39:57;8.60;;;1.20;;
36725;SDS011;44936;52.086;5.150;2023-04-07T13:42:22;4.25;;;1.38;;
36725;SDS011;44936;52.086;5.150;2023-04-07T13:44:48;4.75;;;1.27;;
36725;SDS011;44936;52.086;5.150;2023-04-07T13:47:14;1.45;;;1.00;;
36725;SDS011;44936;52.086;5.150;2023-04-07T13:49:45;5.60;;;1.23;;
36725;SDS011;44936;52.086;5.150;2023-04-07T13:52:11;3.65;;;1.25;;
36725;SDS011;44936;52.086;5.150;2023-04-07T13:54:37;6.90;;;1.30;;
36725;SDS011;44936;52.086;5.150;2023-04-07T13:57:03;2.58;;;1.17;;
36725;SDS011;44936;52.086;5.150;2023-04-07T13:59:29;3.28;;;1.42;;
36725;SDS011;44936;52.086;5.150;2023-04-07T14:01:55;8.75;;;1.70;;
36725;SDS011;44936;52.086;5.150;2023-04-07T14:04:20;7.43;;;1.58;;
36725;SDS011;44936;52.086;5.150;2023-04-07T14:06:46;4.78;;;1.42;;
36725;SDS011;44936;52.086;5.150;2023-04-07T14:09:12;3.65;;;1.33;;
36725;SDS011;44936;52.086;5.150;2023-04-07T14:11:37;6.65;;;1.85;;
36725;SDS011;44936;52.086;5.150;2023-04-07T14:14:02;3.65;;;1.70;;
36725;SDS011;44936;52.086;5.150;2023-04-07T14:16:28;6.38;;;1.65;;
36725;SDS011;44936;52.086;5.150;2023-04-07T14:18:54;3.00;;;1.70;;
36725;SDS011;44936;52.086;5.150;2023-04-07T14:21:20;2.97;;;1.60;;
36725;SDS011;44936;52.086;5.150;2023-04-07T14:23:45;3.05;;;1.77;;
36725;SDS011;44936;52.086;5.150;2023-04-07T14:26:11;3.78;;;1.33;;
36725;SDS011;44936;52.086;5.150;2023-04-07T14:28:37;4.72;;;1.58;;
36725;SDS011;44936;52.086;5.150;2023-04-07T14:31:02;1.92;;;1.17;;
36725;SDS011;44936;52.086;5.150;2023-04-07T14:33:28;3.10;;;1.30;;
36725;SDS011;44936;52.086;5.150;2023-04-07T14:35:53;3.38;;;1.15;;
36725;SDS011;44936;52.086;5.150;2023-04-07T14:38:18;2.78;;;1.38;;
36725;SDS011;44936;52.086;5.150;2023-04-07T14:40:48;3.35;;;1.65;;
36725;SDS011;44936;52.086;5.150;2023-04-07T14:43:14;2.88;;;1.35;;
36725;SDS011;44936;52.086;5.150;2023-04-07T14:45:39;7.78;;;1.70;;
36725;SDS011;44936;52.086;5.150;2023-04-07T14:48:04;8.63;;;1.60;;
36725;SDS011;44936;52.086;5.150;2023-04-07T14:50:31;8.80;;;1.48;;
36725;SDS011;44936;52.086;5.150;2023-04-07T14:52:57;3.88;;;1.42;;
36725;SDS011;44936;52.086;5.150;2023-04-07T14:55:23;5.00;;;1.60;;
36725;SDS011;44936;52.086;5.150;2023-04-07T14:57:48;2.45;;;1.25;;
36725;SDS011;44936;52.086;5.150;2023-04-07T15:00:14;4.40;;;2.05;;
36725;SDS011;44936;52.086;5.150;2023-04-07T15:02:39;4.78;;;1.55;;
36725;SDS011;44936;52.086;5.150;2023-04-07T15:05:05;5.13;;;1.73;;
36725;SDS011;44936;52.086;5.150;2023-04-07T15:07:31;1.40;;;1.17;;
36725;SDS011;44936;52.086;5.150;2023-04-07T15:09:56;6.25;;;1.63;;
36725;SDS011;44936;52.086;5.150;2023-04-07T15:12:23;3.85;;;1.40;;